Time;durP1;ratioP1;P1;durP2;ratioP2;P2;SDS_P1;SDS_P2;PMS_P1;PMS_P2;Temp;Humidity;BMP_temperature;BMP_pressure;BME280_temperature;BME280_humidity;BME280_pressure;Samples;Min_cycle;Max_cycle;Signal;HPM_P1;HPM_P2
2023/06/28 00:02:46;;;;;;;2.80;0.98;;;25.30;32.60;;;;;;6243344;28;20508;-75
2023/06/28 00:05:47;;;;;;;1.92;1.15;;;25.20;33.00;;;;;;6258885;28;20029;-75
2023/06/28 00:08:48;;;;;;;6.10;1.25;;;25.10;33.40;;;;;;6242206;28;20037;-75
2023/06/28 00:11:49;;;;;;;2.60;0.90;;;25.00;33.80;;;;;;6243729;28;20025;-72
2023/06/28 00:14:50;;;;;;;1.83;1.20;;;24.90;34.40;;;;;;6242298;28;20120;-76
2023/06/28 00:17:51;;;;;;;3.70;1.25;;;24.70;34.80;;;;;;6242130;28;20547;-74
2023/06/28 00:20:52;;;;;;;3.95;1.30;;;24.60;35.10;;;;;;6241536;28;20045;-73
2023/06/28 00:23:53;;;;;;;3.40;1.02;;;24.50;35.50;;;;;;6241244;28;20242;-74
2023/06/28 00:26:54;;;;;;;3.47;1.20;;;24.40;35.70;;;;;;6257424;28;20038;-75
2023/06/28 00:29:56;;;;;;;6.68;1.20;;;24.40;35.80;;;;;;6242348;28;20478;-74
2023/06/28 00:32:56;;;;;;;2.42;1.10;;;24.30;36.10;;;;;;6243464;28;20130;-74
2023/06/28 00:35:58;;;;;;;3.60;1.33;;;24.20;36.10;;;;;;6241809;28;20079;-73
2023/06/28 00:39:00;;;;;;;5.22;1.45;;;24.20;36.20;;;;;;6243573;28;20049;-75
2023/06/28 00:42:02;;;;;;;6.65;1.52;;;24.20;36.30;;;;;;6241804;28;20037;-74
2023/06/28 00:45:03;;;;;;;2.90;1.20;;;24.20;36.30;;;;;;6240554;28;20046;-75
2023/06/28 00:48:04;;;;;;;2.10;1.20;;;24.20;36.60;;;;;;6240538;28;20030;-74
2023/06/28 00:51:05;;;;;;;2.50;1.10;;;24.10;36.80;;;;;;6240547;28;20040;-74
2023/06/28 00:54:06;;;;;;;5.68;1.23;;;24.10;37.00;;;;;;6240242;28;20579;-74
2023/06/28 00:57:08;;;;;;;13.05;1.30;;;24.00;37.30;;;;;;6241989;28;20022;-74
2023/06/28 01:00:12;;;;;;;2.78;1.40;;;24.00;37.50;;;;;;6240679;28;20029;-74
2023/06/28 01:03:17;;;;;;;3.13;1.30;;;23.90;37.60;;;;;;6223816;28;20051;-74
2023/06/28 01:06:21;;;;;;;1.95;0.90;;;23.90;37.90;;;;;;6242260;28;20048;-74
2023/06/28 01:09:24;;;;;;;5.95;1.02;;;23.90;38.10;;;;;;6240294;28;20037;-73
2023/06/28 01:12:25;;;;;;;6.20;1.35;;;23.90;38.20;;;;;;6239742;28;20042;-75
2023/06/28 01:15:27;;;;;;;2.67;1.25;;;23.80;38.40;;;;;;6256348;28;20051;-73
2023/06/28 01:18:29;;;;;;;3.97;1.10;;;23.80;38.70;;;;;;6240268;28;20033;-73
2023/06/28 01:21:37;;;;;;;4.68;1.15;;;23.70;38.90;;;;;;6241003;28;20414;-74
2023/06/28 01:24:38;;;;;;;2.00;1.20;;;23.60;39.30;;;;;;6256569;28;20135;-74
2023/06/28 01:27:44;;;;;;;3.47;1.00;;;23.50;39.40;;;;;;6241681;28;20075;-74
2023/06/28 01:30:49;;;;;;;5.03;1.52;;;23.50;39.60;;;;;;6256353;28;20196;-73
2023/06/28 01:33:49;;;;;;;4.40;1.45;;;23.40;40.00;;;;;;6239263;28;20626;-73
2023/06/28 01:36:52;;;;;;;1.98;1.23;;;23.30;40.10;;;;;;6261244;28;20032;-73
2023/06/28 01:39:55;;;;;;;1.90;0.98;;;23.30;40.20;;;;;;6263544;28;20033;-74
2023/06/28 01:42:55;;;;;;;2.45;1.20;;;23.30;40.50;;;;;;6256087;28;20038;-75
2023/06/28 01:45:57;;;;;;;2.47;1.17;;;23.20;40.60;;;;;;6255984;28;20029;-74
2023/06/28 01:49:00;;;;;;;2.90;1.45;;;23.20;40.60;;;;;;6258337;28;20522;-75
2023/06/28 01:52:01;;;;;;;4.43;1.27;;;23.10;40.70;;;;;;6241505;28;20053;-73
2023/06/28 01:55:03;;;;;;;3.33;1.52;;;23.10;40.80;;;;;;6239680;28;20037;-74
2023/06/28 01:58:04;;;;;;;3.17;1.30;;;23.10;41.00;;;;;;6240481;28;20100;-74
2023/06/28 02:01:05;;;;;;;5.80;1.15;;;23.10;41.10;;;;;;6239410;28;20128;-75
2023/06/28 02:04:06;;;;;;;2.03;1.17;;;23.00;41.20;;;;;;6239190;28;20095;-73
2023/06/28 02:07:07;;;;;;;5.55;1.58;;;23.00;41.20;;;;;;6256015;28;20033;-73
2023/06/28 02:10:10;;;;;;;8.10;1.35;;;23.00;41.40;;;;;;6239480;28;20121;-73
2023/06/28 02:13:11;;;;;;;3.38;1.20;;;22.90;41.50;;;;;;6240587;28;20034;-76
2023/06/28 02:16:13;;;;;;;2.78;1.30;;;22.90;41.60;;;;;;6239019;28;20520;-75
2023/06/28 02:19:15;;;;;;;6.80;1.60;;;22.90;41.70;;;;;;6240823;28;20667;-74
2023/06/28 02:22:17;;;;;;;4.60;1.30;;;23.00;41.80;;;;;;6239015;28;20033;-73
2023/06/28 02:25:17;;;;;;;3.92;1.20;;;22.90;41.80;;;;;;6239061;28;20136;-74
2023/06/28 02:28:19;;;;;;;4.80;1.30;;;22.90;41.80;;;;;;6239036;28;20052;-74
2023/06/28 02:31:20;;;;;;;6.70;1.35;;;22.80;41.80;;;;;;6238825;28;20086;-73
2023/06/28 02:34:21;;;;;;;3.00;1.42;;;22.80;42.00;;;;;;6238505;28;20078;-73
2023/06/28 02:37:21;;;;;;;4.18;1.75;;;22.80;42.10;;;;;;6265308;28;20037;-74
2023/06/28 02:40:24;;;;;;;2.65;1.20;;;22.80;42.20;;;;;;6217862;28;20115;-74
2023/06/28 02:43:25;;;;;;;4.63;1.38;;;22.80;42.30;;;;;;6230579;28;20211;-74
2023/06/28 02:46:26;;;;;;;5.53;1.50;;;22.70;42.40;;;;;;6238916;28;20030;-73
2023/06/28 02:49:27;;;;;;;2.05;1.10;;;22.70;42.30;;;;;;6239210;28;20030;-74
2023/06/28 02:52:28;;;;;;;7.60;1.73;;;22.60;42.30;;;;;;6238347;28;20088;-73
2023/06/28 02:55:29;;;;;;;2.92;1.30;;;22.60;42.70;;;;;;6255122;28;20520;-74
2023/06/28 02:58:34;;;;;;;2.17;1.30;;;22.50;42.80;;;;;;6255219;28;20116;-72
2023/06/28 03:01:35;;;;;;;2.40;1.35;;;22.50;42.90;;;;;;6239925;28;20227;-74
2023/06/28 03:04:39;;;;;;;4.80;1.40;;;22.50;42.90;;;;;;6254960;28;20542;-74
2023/06/28 03:07:42;;;;;;;3.67;1.52;;;22.50;43.00;;;;;;6241022;28;20055;-74
2023/06/28 03:10:43;;;;;;;2.90;1.40;;;22.50;42.80;;;;;;6260239;28;20469;-73
2023/06/28 03:13:44;;;;;;;2.78;1.17;;;22.50;42.90;;;;;;6242972;28;20099;-74
2023/06/28 03:16:46;;;;;;;3.35;1.50;;;22.50;43.10;;;;;;6242677;28;20048;-75
2023/06/28 03:19:46;;;;;;;4.30;1.40;;;22.50;43.30;;;;;;6226829;28;20033;-75
2023/06/28 03:22:47;;;;;;;6.47;1.45;;;22.40;43.40;;;;;;6259271;28;20063;-74
2023/06/28 03:25:49;;;;;;;4.20;1.33;;;22.40;43.50;;;;;;6264303;28;20033;-75
2023/06/28 03:28:50;;;;;;;7.47;1.35;;;22.40;43.40;;;;;;6246224;28;20523;-74
2023/06/28 03:31:52;;;;;;;4.22;1.30;;;22.30;43.30;;;;;;6242372;28;20032;-75
2023/06/28 03:34:53;;;;;;;2.70;1.35;;;22.30;43.20;;;;;;6258673;28;20453;-72
2023/06/28 03:37:55;;;;;;;3.08;1.33;;;22.30;43.20;;;;;;6273013;28;20138;-74
2023/06/28 03:40:56;;;;;;;4.15;1.40;;;22.40;43.00;;;;;;6262311;28;20366;-75
2023/06/28 03:43:57;;;;;;;4.25;1.33;;;22.30;42.80;;;;;;6225934;28;20036;-75
2023/06/28 03:46:58;;;;;;;6.20;1.25;;;22.40;42.80;;;;;;6244417;28;20467;-74
2023/06/28 03:49:59;;;;;;;4.72;1.25;;;22.40;42.70;;;;;;6243912;28;20199;-74
2023/06/28 03:53:02;;;;;;;1.52;1.10;;;22.40;42.60;;;;;;6242249;28;20037;-75
2023/06/28 03:56:05;;;;;;;5.63;1.35;;;22.40;42.50;;;;;;6226797;28;20078;-75
2023/06/28 03:59:06;;;;;;;2.75;1.50;;;22.50;42.50;;;;;;6242186;28;20048;-75
2023/06/28 04:02:07;;;;;;;9.25;1.20;;;22.50;42.40;;;;;;6242369;28;20037;-73
2023/06/28 04:05:08;;;;;;;5.00;1.30;;;22.50;42.50;;;;;;6243637;28;20041;-73
2023/06/28 04:08:09;;;;;;;4.50;1.83;;;22.30;42.30;;;;;;6261219;28;20024;-73
2023/06/28 04:11:09;;;;;;;4.60;1.33;;;22.50;42.30;;;;;;6247036;28;20073;-73
2023/06/28 04:14:10;;;;;;;6.45;1.30;;;22.50;42.30;;;;;;6258966;28;20033;-75
2023/06/28 04:17:11;;;;;;;4.55;1.40;;;22.50;42.20;;;;;;6243366;28;20030;-74
2023/06/28 04:20:12;;;;;;;1.73;1.20;;;22.50;42.10;;;;;;6241055;28;20084;-74
2023/06/28 04:23:13;;;;;;;10.68;1.45;;;22.50;42.00;;;;;;6258470;28;20699;-75
2023/06/28 04:26:14;;;;;;;5.78;1.48;;;22.60;41.80;;;;;;6241311;28;20033;-73
2023/06/28 04:29:15;;;;;;;7.78;1.70;;;22.60;41.90;;;;;;6258463;28;20491;-75
2023/06/28 04:32:26;;;;;;;4.47;1.25;;;22.60;41.80;;;;;;6241356;28;20029;-75
2023/06/28 04:35:29;;;;;;;2.70;1.35;;;22.60;41.90;;;;;;6243514;28;20114;-75
2023/06/28 04:38:32;;;;;;;6.53;1.60;;;22.60;41.90;;;;;;6255836;28;20029;-74
2023/06/28 04:41:33;;;;;;;3.05;1.20;;;22.60;42.00;;;;;;6244215;28;20025;-73
2023/06/28 04:44:36;;;;;;;11.23;1.50;;;22.60;42.10;;;;;;6243944;28;20553;-74
2023/06/28 04:47:38;;;;;;;3.15;1.50;;;22.60;42.10;;;;;;6245449;28;20088;-74
2023/06/28 04:50:39;;;;;;;4.10;1.33;;;22.50;41.90;;;;;;6247402;28;20503;-74
2023/06/28 04:53:40;;;;;;;4.43;1.23;;;22.50;41.80;;;;;;6245612;28;20087;-74
2023/06/28 04:56:40;;;;;;;5.43;1.60;;;22.60;41.80;;;;;;6243354;28;20068;-73
2023/06/28 04:59:42;;;;;;;4.97;1.33;;;22.60;41.80;;;;;;6241344;28;20040;-73
2023/06/28 05:02:42;;;;;;;5.95;1.40;;;22.70;41.80;;;;;;6240364;28;20124;-74
2023/06/28 05:05:43;;;;;;;3.67;1.65;;;22.70;41.70;;;;;;6242065;28;20040;-74
2023/06/28 05:08:44;;;;;;;2.22;0.98;;;22.70;41.70;;;;;;6240634;28;20447;-73
2023/06/28 05:11:45;;;;;;;2.63;1.33;;;22.70;41.70;;;;;;6240448;28;20042;-73
2023/06/28 05:14:46;;;;;;;5.75;1.42;;;22.70;41.90;;;;;;6241491;28;20056;-74
2023/06/28 05:17:48;;;;;;;8.32;1.55;;;22.80;42.00;;;;;;6240335;28;20507;-75
2023/06/28 05:20:49;;;;;;;8.70;1.75;;;22.80;42.00;;;;;;6241607;28;20022;-74
2023/06/28 05:23:50;;;;;;;2.22;1.30;;;22.80;42.10;;;;;;6256473;28;20034;-74
2023/06/28 05:26:51;;;;;;;5.35;1.23;;;22.80;42.30;;;;;;6256705;28;20065;-74
2023/06/28 05:29:52;;;;;;;3.03;1.50;;;22.90;42.40;;;;;;6256840;28;20087;-74
2023/06/28 05:32:52;;;;;;;4.15;1.85;;;22.80;42.40;;;;;;6239818;28;20363;-74
2023/06/28 05:35:54;;;;;;;2.35;1.10;;;22.90;42.50;;;;;;6239647;28;20041;-74
2023/06/28 05:38:58;;;;;;;4.00;1.55;;;22.90;42.50;;;;;;6252831;28;20061;-75
2023/06/28 05:41:59;;;;;;;2.88;1.48;;;22.90;42.60;;;;;;6256428;28;20037;-74
2023/06/28 05:44:59;;;;;;;5.22;1.48;;;22.90;42.70;;;;;;6241083;28;20029;-75
2023/06/28 05:48:00;;;;;;;11.05;1.63;;;22.90;42.80;;;;;;6256646;28;20061;-74
2023/06/28 05:51:01;;;;;;;2.47;1.38;;;22.90;42.80;;;;;;6239474;28;20033;-75
2023/06/28 05:54:03;;;;;;;9.13;1.70;;;23.00;42.70;;;;;;6240714;28;20056;-74
2023/06/28 05:57:04;;;;;;;3.50;1.70;;;22.90;42.70;;;;;;6239950;28;20044;-73
2023/06/28 06:00:06;;;;;;;2.78;1.50;;;23.00;42.80;;;;;;6241278;28;20398;-73
2023/06/28 06:03:08;;;;;;;6.20;1.90;;;23.00;43.00;;;;;;6255933;28;20026;-73
2023/06/28 06:06:09;;;;;;;3.65;1.55;;;23.00;43.00;;;;;;6238926;28;20034;-76
2023/06/28 06:09:09;;;;;;;7.35;1.65;;;23.10;43.00;;;;;;6239563;28;20037;-75
2023/06/28 06:12:10;;;;;;;16.13;1.83;;;23.20;43.50;;;;;;6238855;28;20094;-75
2023/06/28 06:15:12;;;;;;;3.88;1.63;;;23.20;42.90;;;;;;6240312;28;20026;-75
2023/06/28 06:18:13;;;;;;;4.13;1.50;;;23.20;42.90;;;;;;6240602;28;20034;-74
2023/06/28 06:21:14;;;;;;;4.03;2.05;;;23.20;43.10;;;;;;6242592;28;20029;-76
2023/06/28 06:24:15;;;;;;;3.88;1.27;;;23.20;43.00;;;;;;6246302;28;20029;-75
2023/06/28 06:27:16;;;;;;;4.55;1.38;;;23.30;42.80;;;;;;6256092;28;20405;-76
2023/06/28 06:30:16;;;;;;;4.53;1.40;;;23.40;42.60;;;;;;6255073;28;20078;-74
2023/06/28 06:33:17;;;;;;;2.85;1.13;;;23.50;43.00;;;;;;6237512;28;20148;-74
2023/06/28 06:36:18;;;;;;;5.82;1.40;;;23.50;42.10;;;;;;6240339;28;20033;-75
2023/06/28 06:39:19;;;;;;;2.28;1.42;;;23.60;41.90;;;;;;6250680;28;20030;-74
2023/06/28 06:42:20;;;;;;;4.35;1.40;;;23.70;41.70;;;;;;6241670;28;20029;-73
2023/06/28 06:45:21;;;;;;;5.55;1.60;;;23.80;41.40;;;;;;6246072;28;20036;-75
2023/06/28 06:48:23;;;;;;;9.52;1.85;;;23.90;41.30;;;;;;6244989;28;20591;-73
2023/06/28 06:51:23;;;;;;;6.35;1.48;;;24.00;41.00;;;;;;6246912;28;20485;-75
2023/06/28 06:54:29;;;;;;;2.97;1.27;;;24.10;40.70;;;;;;6250605;28;20038;-74
2023/06/28 06:57:31;;;;;;;3.47;1.30;;;24.10;40.60;;;;;;6258428;28;20037;-74
2023/06/28 07:00:32;;;;;;;3.45;1.60;;;24.20;40.30;;;;;;6250800;28;20087;-74
2023/06/28 07:03:34;;;;;;;3.55;1.63;;;24.30;40.20;;;;;;6244624;28;20033;-74
2023/06/28 07:06:35;;;;;;;4.10;1.50;;;24.40;40.00;;;;;;6244240;28;20077;-74
2023/06/28 07:09:36;;;;;;;2.45;1.35;;;24.60;39.60;;;;;;6244513;28;20057;-75
2023/06/28 07:12:37;;;;;;;6.18;1.80;;;24.70;39.30;;;;;;6244256;28;20539;-73
2023/06/28 07:15:38;;;;;;;7.28;1.80;;;24.70;39.00;;;;;;6244601;28;20033;-75
2023/06/28 07:18:40;;;;;;;5.50;1.80;;;24.80;39.00;;;;;;6259305;28;20579;-75
2023/06/28 07:21:41;;;;;;;14.98;1.80;;;24.90;38.80;;;;;;6244840;28;20036;-76
2023/06/28 07:24:42;;;;;;;3.67;1.25;;;24.90;38.70;;;;;;6245654;28;20072;-75
2023/06/28 07:27:43;;;;;;;8.15;1.80;;;25.00;38.50;;;;;;6243915;28;20029;-75
2023/06/28 07:30:53;;;;;;;11.70;1.88;;;25.10;38.40;;;;;;6244023;28;20263;-75
2023/06/28 07:33:54;;;;;;;2.03;1.38;;;25.10;38.20;;;;;;6242517;28;20466;-76
2023/06/28 07:36:55;;;;;;;5.53;1.90;;;25.30;38.10;;;;;;6242982;28;20030;-75
2023/06/28 07:39:57;;;;;;;7.80;1.40;;;25.30;37.90;;;;;;6244212;28;20029;-74
2023/06/28 07:42:58;;;;;;;8.65;1.38;;;25.40;37.90;;;;;;6259642;28;20029;-74
2023/06/28 07:46:00;;;;;;;10.65;1.90;;;25.50;37.80;;;;;;6259214;28;20064;-75
2023/06/28 07:49:01;;;;;;;6.25;1.63;;;25.50;37.70;;;;;;6260320;28;20060;-74
2023/06/28 07:52:02;;;;;;;5.95;1.55;;;25.60;37.50;;;;;;6243258;28;20033;-76
2023/06/28 07:55:05;;;;;;;14.98;1.52;;;25.60;37.40;;;;;;6241739;28;20044;-75
2023/06/28 07:58:06;;;;;;;3.25;1.33;;;25.80;37.30;;;;;;6243713;28;20497;-75
2023/06/28 08:01:07;;;;;;;5.30;1.52;;;26.00;37.20;;;;;;6242064;28;20039;-76
2023/06/28 08:04:08;;;;;;;12.70;1.98;;;26.10;36.90;;;;;;6243696;28;20033;-76
2023/06/28 08:07:09;;;;;;;5.85;1.45;;;26.30;36.70;;;;;;6258368;28;20041;-75
2023/06/28 08:10:10;;;;;;;8.80;1.55;;;26.30;36.50;;;;;;6259054;28;20049;-73
2023/06/28 08:13:11;;;;;;;11.85;1.50;;;26.40;36.40;;;;;;6259826;28;20060;-74
2023/06/28 08:16:13;;;;;;;4.50;1.58;;;26.60;36.10;;;;;;6244798;28;20037;-74
2023/06/28 08:19:14;;;;;;;4.65;1.50;;;26.70;35.80;;;;;;6260741;28;20041;-75
2023/06/28 08:22:15;;;;;;;6.38;1.55;;;26.80;35.40;;;;;;6260117;28;20108;-75
2023/06/28 08:25:16;;;;;;;8.30;1.70;;;26.90;35.10;;;;;;6260366;28;20043;-77
2023/06/28 08:28:20;;;;;;;4.70;1.33;;;27.10;34.90;;;;;;6244187;28;20029;-76
2023/06/28 08:31:24;;;;;;;2.85;1.75;;;27.20;34.40;;;;;;6244688;28;20037;-75
2023/06/28 08:34:30;;;;;;;4.75;1.35;;;27.30;34.10;;;;;;6245410;28;20088;-74
2023/06/28 08:37:34;;;;;;;6.75;1.67;;;27.30;34.00;;;;;;6227277;28;20195;-73
2023/06/28 08:40:35;;;;;;;2.83;1.17;;;27.40;33.70;;;;;;6257478;28;20064;-75
2023/06/28 08:43:36;;;;;;;2.90;1.20;;;27.50;33.50;;;;;;6242560;28;20060;-75
2023/06/28 08:46:38;;;;;;;4.80;1.30;;;27.60;33.20;;;;;;6242106;28;20021;-76
2023/06/28 08:49:39;;;;;;;5.38;1.13;;;27.50;33.10;;;;;;6241911;28;20040;-74
2023/06/28 08:52:41;;;;;;;3.45;1.40;;;27.60;33.10;;;;;;6257775;28;20052;-75
2023/06/28 08:55:43;;;;;;;3.92;1.30;;;27.70;32.80;;;;;;6257243;28;20057;-74
2023/06/28 08:58:48;;;;;;;4.20;1.40;;;27.80;32.40;;;;;;6240344;28;20041;-76
2023/06/28 09:01:55;;;;;;;3.45;1.40;;;27.80;32.20;;;;;;6240764;28;20070;-73
2023/06/28 09:04:56;;;;;;;3.60;1.30;;;27.90;32.20;;;;;;6241490;28;20033;-74
2023/06/28 09:07:59;;;;;;;7.82;1.92;;;28.00;32.20;;;;;;6240740;28;20080;-75
2023/06/28 09:11:01;;;;;;;1.80;1.17;;;28.00;32.20;;;;;;6256964;28;20458;-74
2023/06/28 09:14:03;;;;;;;3.47;1.23;;;28.10;32.00;;;;;;6257506;28;20714;-77
2023/06/28 09:17:05;;;;;;;4.88;1.63;;;28.30;31.80;;;;;;6241812;28;20044;-75
2023/06/28 09:20:19;;;;;;;3.33;1.38;;;28.30;31.50;;;;;;6256545;28;20489;-75
2023/06/28 09:23:23;;;;;;;1.60;1.10;;;28.40;31.50;;;;;;6241229;28;20074;-74
2023/06/28 09:26:33;;;;;;;2.20;1.23;;;28.50;31.40;;;;;;6256821;28;20033;-75
2023/06/28 09:29:34;;;;;;;2.90;1.38;;;28.60;31.30;;;;;;6257661;28;20116;-73
2023/06/28 09:32:43;;;;;;;5.57;1.90;;;28.60;31.20;;;;;;6241420;28;20057;-75
2023/06/28 09:35:44;;;;;;;13.68;1.60;;;28.70;31.20;;;;;;6256412;28;20112;-75
2023/06/28 09:38:46;;;;;;;2.72;1.50;;;28.60;31.10;;;;;;6269241;28;20450;-75
2023/06/28 09:41:48;;;;;;;3.90;1.30;;;28.60;31.20;;;;;;6260810;28;20048;-73
2023/06/28 09:44:56;;;;;;;9.70;2.58;;;28.60;31.00;;;;;;6240603;28;20104;-75
2023/06/28 09:47:58;;;;;;;10.00;2.83;;;28.70;31.10;;;;;;6239613;28;20135;-74
2023/06/28 09:51:05;;;;;;;4.32;2.10;;;28.80;30.70;;;;;;6243001;28;20036;-75
2023/06/28 09:54:06;;;;;;;8.68;1.63;;;28.90;30.70;;;;;;6241806;28;20060;-73
2023/06/28 09:57:07;;;;;;;5.43;1.20;;;28.90;30.60;;;;;;6257427;28;20033;-75
2023/06/28 10:00:10;;;;;;;4.10;1.67;;;29.00;30.70;;;;;;6239470;28;20060;-74
2023/06/28 10:03:14;;;;;;;5.57;1.50;;;29.00;30.60;;;;;;6241145;28;20087;-74
2023/06/28 10:06:16;;;;;;;2.78;1.40;;;29.00;30.70;;;;;;6242104;28;20102;-76
2023/06/28 10:09:22;;;;;;;3.30;1.55;;;28.90;30.80;;;;;;6241059;28;20140;-75
2023/06/28 10:12:25;;;;;;;4.85;1.42;;;28.90;30.70;;;;;;6222574;28;20033;-74
2023/06/28 10:15:34;;;;;;;4.53;2.08;;;28.90;30.80;;;;;;6255847;28;20042;-74
2023/06/28 10:18:35;;;;;;;13.75;5.93;;;28.90;30.60;;;;;;6243027;28;20068;-74
2023/06/28 10:21:39;;;;;;;8.57;2.47;;;29.00;30.50;;;;;;6245187;28;20402;-74
2023/06/28 10:24:42;;;;;;;4.72;1.90;;;29.10;30.50;;;;;;6245045;28;20161;-76
2023/06/28 10:27:43;;;;;;;6.32;1.88;;;29.20;30.30;;;;;;6245206;28;20033;-74
2023/06/28 10:30:45;;;;;;;6.10;1.60;;;29.30;30.40;;;;;;6261033;28;20075;-76
2023/06/28 10:33:47;;;;;;;5.22;1.55;;;29.40;30.50;;;;;;6243359;28;20477;-75
2023/06/28 10:36:49;;;;;;;11.15;1.75;;;29.50;30.50;;;;;;6248560;28;20091;-74
2023/06/28 10:39:52;;;;;;;4.72;1.88;;;29.60;30.50;;;;;;6251250;28;20445;-74
2023/06/28 10:42:54;;;;;;;7.53;2.00;;;29.60;30.40;;;;;;6245270;28;20112;-75
2023/06/28 10:45:55;;;;;;;2.65;1.63;;;29.70;30.30;;;;;;6228718;28;20121;-75
2023/06/28 10:49:00;;;;;;;3.25;1.60;;;29.70;30.10;;;;;;6244112;28;20049;-74
2023/06/28 10:52:01;;;;;;;5.18;1.80;;;29.90;30.10;;;;;;6245594;28;20099;-75
2023/06/28 10:55:03;;;;;;;7.05;2.22;;;30.00;30.00;;;;;;6245184;28;20037;-74
2023/06/28 10:58:13;;;;;;;2.45;1.55;;;30.20;30.00;;;;;;6245051;28;20129;-74
2023/06/28 11:01:54;;;;;;;3.17;1.42;;;30.20;29.90;;;;;;6260175;28;20597;-76
2023/06/28 11:04:55;;;;;;;3.13;1.70;;;30.40;29.80;;;;;;6192846;28;20038;-74
2023/06/28 11:08:07;;;;;;;4.40;2.05;;;30.50;29.70;;;;;;6192760;28;20039;-74
2023/06/28 11:11:30;;;;;;;3.63;1.88;;;31.10;29.30;;;;;;6192376;28;20030;-74
2023/06/28 11:14:32;;;;;;;6.50;1.70;;;32.10;28.40;;;;;;6192497;28;20038;-76
2023/06/28 11:17:33;;;;;;;6.78;1.50;;;32.80;27.60;;;;;;6192571;28;20071;-75
2023/06/28 11:20:56;;;;;;;2.92;1.50;;;33.40;27.00;;;;;;6192562;28;20144;-74
2023/06/28 11:23:57;;;;;;;5.22;1.73;;;33.90;26.50;;;;;;6191910;28;20120;-74
2023/06/28 11:26:58;;;;;;;4.47;1.65;;;34.30;26.10;;;;;;6196922;28;20446;-74
2023/06/28 11:30:02;;;;;;;5.15;1.60;;;34.60;25.80;;;;;;6191913;28;20123;-75
2023/06/28 11:33:03;;;;;;;2.17;1.20;;;34.90;25.60;;;;;;6191607;28;20069;-75
2023/06/28 11:36:06;;;;;;;3.65;1.65;;;35.20;25.20;;;;;;6175471;28;20046;-74
2023/06/28 11:39:07;;;;;;;5.82;1.45;;;35.30;25.10;;;;;;6180761;28;20118;-75
2023/06/28 11:42:13;;;;;;;4.63;1.77;;;35.40;24.90;;;;;;6201811;28;20502;-75
2023/06/28 11:45:20;;;;;;;8.02;1.80;;;35.50;24.90;;;;;;6218199;28;20033;-75
2023/06/28 11:48:21;;;;;;;3.40;1.95;;;35.70;24.80;;;;;;6219998;28;20106;-74
2023/06/28 11:51:23;;;;;;;7.22;1.50;;;35.90;24.80;;;;;;6234004;28;20072;-73
2023/06/28 11:54:24;;;;;;;3.63;1.67;;;36.00;24.60;;;;;;6268470;28;20036;-75
2023/06/28 11:57:25;;;;;;;3.92;1.77;;;36.00;24.40;;;;;;6271713;28;20396;-74
2023/06/28 12:00:38;;;;;;;2.70;1.33;;;36.00;24.50;;;;;;6276559;28;20091;-76
2023/06/28 12:03:39;;;;;;;3.58;1.40;;;36.00;24.50;;;;;;6274623;28;20033;-76
2023/06/28 12:06:41;;;;;;;2.90;1.40;;;36.40;24.40;;;;;;6268208;28;20075;-75
2023/06/28 12:09:42;;;;;;;4.95;1.70;;;36.70;24.20;;;;;;6242841;28;20049;-73
2023/06/28 12:12:43;;;;;;;5.45;1.60;;;36.90;23.80;;;;;;6242864;28;20554;-76
2023/06/28 12:15:44;;;;;;;3.53;1.50;;;36.90;23.90;;;;;;6242020;28;20037;-74
2023/06/28 12:18:59;;;;;;;12.13;1.60;;;36.90;23.90;;;;;;6241569;28;20069;-76
2023/06/28 12:22:02;;;;;;;4.63;1.40;;;37.10;24.40;;;;;;6241566;28;20104;-74
2023/06/28 12:25:03;;;;;;;6.78;1.50;;;37.40;23.60;;;;;;6243586;28;20116;-75
2023/06/28 12:28:04;;;;;;;3.20;1.20;;;37.50;23.30;;;;;;6243618;28;20128;-74
2023/06/28 12:31:08;;;;;;;5.15;1.70;;;37.80;23.10;;;;;;6242782;28;20639;-76
2023/06/28 12:34:09;;;;;;;4.32;1.80;;;37.90;23.00;;;;;;6241936;28;20051;-74
2023/06/28 12:37:12;;;;;;;3.13;1.30;;;38.10;23.00;;;;;;6251546;28;20033;-76
2023/06/28 12:40:13;;;;;;;5.05;1.75;;;38.20;22.70;;;;;;6245945;28;20030;-74
2023/06/28 12:43:17;;;;;;;3.63;1.60;;;38.20;22.50;;;;;;6241639;28;20025;-75
2023/06/28 12:46:18;;;;;;;3.78;1.60;;;38.20;22.70;;;;;;6241646;28;20037;-74
2023/06/28 12:49:19;;;;;;;3.83;1.70;;;38.50;22.60;;;;;;6242240;28;20064;-77
2023/06/28 12:52:25;;;;;;;4.03;1.38;;;38.50;22.30;;;;;;6262861;28;20046;-75
2023/06/28 12:55:31;;;;;;;4.93;1.30;;;38.50;22.40;;;;;;6266655;28;20079;-75
2023/06/28 12:59:04;;;;;;;5.68;1.55;;;38.70;22.20;;;;;;6256707;28;20029;-74
2023/06/28 13:02:08;;;;;;;2.97;1.70;;;39.10;21.80;;;;;;6274048;28;20041;-77
2023/06/28 13:05:10;;;;;;;3.58;1.60;;;39.20;21.50;;;;;;6249559;28;20164;-74
2023/06/28 13:08:11;;;;;;;7.25;1.60;;;39.10;21.50;;;;;;6243139;28;20128;-74
2023/06/28 13:11:12;;;;;;;4.53;1.55;;;39.20;21.40;;;;;;6240863;28;20034;-73
2023/06/28 13:14:15;;;;;;;7.15;1.83;;;39.60;21.30;;;;;;6241951;28;20029;-75
2023/06/28 13:17:15;;;;;;;6.25;1.80;;;39.90;21.20;;;;;;6224381;28;20037;-75
2023/06/28 13:20:16;;;;;;;3.22;1.52;;;40.40;20.80;;;;;;6240243;28;20142;-74
2023/06/28 13:23:17;;;;;;;3.80;1.67;;;40.80;20.60;;;;;;6239856;28;20494;-76
2023/06/28 13:26:18;;;;;;;7.63;2.08;;;41.20;20.20;;;;;;6240947;28;20095;-74
2023/06/28 13:29:19;;;;;;;3.97;1.80;;;41.50;20.00;;;;;;6239762;28;20109;-74
2023/06/28 13:32:28;;;;;;;3.60;1.25;;;41.70;19.60;;;;;;6245115;28;20083;-74
2023/06/28 13:36:13;;;;;;;7.47;1.90;;;41.60;19.40;;;;;;6252747;28;20037;-75
2023/06/28 13:39:26;;;;;;;3.72;1.42;;;41.20;19.60;;;;;;6234761;28;20030;-76
2023/06/28 13:42:27;;;;;;;;;;;41.40;19.80;;;;;;6261108;28;20070;-75
2023/06/28 13:45:28;;;;;;;2.63;1.40;;;41.60;19.60;;;;;;6241719;28;19923;-75
2023/06/28 13:48:29;;;;;;;5.80;1.83;;;42.10;19.20;;;;;;6256813;28;20053;-75
2023/06/28 13:51:32;;;;;;;3.78;1.75;;;42.70;18.90;;;;;;6240973;28;20037;-74
2023/06/28 13:54:32;;;;;;;4.18;1.50;;;43.30;18.60;;;;;;6241294;28;20434;-75
2023/06/28 13:57:33;;;;;;;5.88;2.17;;;43.80;18.30;;;;;;6256146;28;20084;-75
2023/06/28 14:00:34;;;;;;;6.53;2.00;;;44.20;17.90;;;;;;6253133;28;20096;-76
2023/06/28 14:03:35;;;;;;;2.90;1.50;;;44.20;17.90;;;;;;6264867;28;20040;-74
2023/06/28 14:06:36;;;;;;;4.60;1.80;;;44.00;17.70;;;;;;6280441;28;20029;-74
2023/06/28 14:09:37;;;;;;;9.35;1.80;;;43.60;17.70;;;;;;6265512;28;20049;-75
2023/06/28 14:12:38;;;;;;;3.53;1.70;;;43.40;17.90;;;;;;6264948;28;20057;-75
2023/06/28 14:15:39;;;;;;;5.43;2.05;;;43.50;17.90;;;;;;6253175;28;20084;-75
2023/06/28 14:18:40;;;;;;;5.55;1.60;;;43.60;17.90;;;;;;6239845;28;20041;-76
2023/06/28 14:21:41;;;;;;;5.70;1.90;;;43.90;17.80;;;;;;6240454;28;20025;-75
2023/06/28 14:24:42;;;;;;;5.82;1.98;;;44.30;17.70;;;;;;6239030;28;20044;-75
2023/06/28 14:27:44;;;;;;;5.03;2.13;;;44.30;17.30;;;;;;6240599;28;20678;-73
2023/06/28 14:30:45;;;;;;;4.82;1.63;;;44.00;17.30;;;;;;6241245;28;20041;-77
2023/06/28 14:33:47;;;;;;;3.80;1.80;;;43.60;17.60;;;;;;6241321;28;20052;-76
2023/06/28 14:36:48;;;;;;;6.57;1.85;;;43.40;17.80;;;;;;6245616;28;20079;-75
2023/06/28 14:40:31;;;;;;;3.53;1.90;;;43.40;17.80;;;;;;6255600;28;20018;-75
2023/06/28 14:43:25;;;;;;;3.38;1.85;;;43.80;17.70;;;;;;6239006;28;20119;-75
2023/06/28 14:46:26;;;;;;;3.53;1.98;;;44.10;17.60;;;;;;6255690;28;20037;-74
2023/06/28 14:49:27;;;;;;;3.72;2.00;;;44.00;17.40;;;;;;6239418;28;20564;-75
2023/06/28 14:52:28;;;;;;;9.65;2.28;;;43.80;17.50;;;;;;6256219;28;20397;-74
2023/06/28 14:55:29;;;;;;;6.07;2.08;;;43.80;17.60;;;;;;6242353;28;20563;-75
2023/06/28 14:58:30;;;;;;;5.78;2.22;;;43.70;17.60;;;;;;6265408;28;20656;-75
2023/06/28 15:01:33;;;;;;;4.55;2.08;;;43.60;17.70;;;;;;6264317;28;20496;-75
2023/06/28 15:04:34;;;;;;;4.55;2.00;;;43.50;17.80;;;;;;6283818;28;20114;-74
2023/06/28 15:07:35;;;;;;;2.40;1.60;;;43.70;17.80;;;;;;6270094;28;20033;-75
2023/06/28 15:10:36;;;;;;;5.00;1.90;;;43.50;17.70;;;;;;6268628;28;20068;-75
2023/06/28 15:13:37;;;;;;;5.25;2.15;;;43.50;17.90;;;;;;6253591;28;20029;-74
2023/06/28 15:16:37;;;;;;;6.40;2.15;;;43.30;17.90;;;;;;6251043;28;20041;-74
2023/06/28 15:19:38;;;;;;;4.60;1.95;;;43.00;18.00;;;;;;6244700;28;20127;-74
2023/06/28 15:22:39;;;;;;;4.90;2.17;;;43.00;18.20;;;;;;6243268;28;20029;-75
2023/06/28 15:25:40;;;;;;;5.07;2.63;;;42.80;18.30;;;;;;6244327;28;20098;-74
2023/06/28 15:28:42;;;;;;;3.63;2.00;;;42.50;18.30;;;;;;6243023;28;20055;-75
2023/06/28 15:31:43;;;;;;;7.18;1.92;;;42.20;18.60;;;;;;6243530;28;20025;-74
2023/06/28 15:34:44;;;;;;;5.35;1.75;;;41.90;19.30;;;;;;6243312;28;20030;-76
2023/06/28 15:37:45;;;;;;;7.80;1.83;;;41.60;19.10;;;;;;6245273;28;20049;-73
2023/06/28 15:40:49;;;;;;;5.53;1.75;;;41.60;19.30;;;;;;6258466;28;20056;-77
2023/06/28 15:43:51;;;;;;;3.85;1.92;;;41.80;19.30;;;;;;6243652;28;20032;-73
2023/06/28 15:46:52;;;;;;;6.75;1.83;;;42.10;19.30;;;;;;6242267;28;20474;-74
2023/06/28 15:49:53;;;;;;;3.67;1.65;;;42.40;19.10;;;;;;6242202;28;20136;-74